Time;durP1;ratioP1;P1;durP2;ratioP2;P2;SDS_P1;SDS_P2;PMS_P1;PMS_P2;Temp;Humidity;BMP_temperature;BMP_pressure;BME280_temperature;BME280_humidity;BME280_pressure;Samples;Min_cycle;Max_cycle;Signal;HPM_P1;HPM_P2
2021/01/23 00:02:13;;;;;;;36.38;17.48;;;;;;;;;;5081653;28;20048;-66
2021/01/23 00:04:40;;;;;;;36.47;18.05;;;;;;;;;;5084071;28;20101;-66
2021/01/23 00:07:06;;;;;;;42.40;19.77;;;;;;;;;;5081877;28;20115;-66
2021/01/23 00:09:33;;;;;;;41.58;19.85;;;;;;;;;;5078602;28;20098;-66
2021/01/23 00:11:59;;;;;;;32.88;18.70;;;;;;;;;;5072386;28;20068;-66
2021/01/23 00:14:25;;;;;;;46.38;19.20;;;;;;;;;;5075595;28;20075;-66
2021/01/23 00:16:52;;;;;;;37.78;17.85;;;;;;;;;;5078435;28;20055;-66
2021/01/23 00:19:18;;;;;;;40.40;17.83;;;;;;;;;;5078652;28;20400;-66
2021/01/23 00:21:45;;;;;;;40.75;18.85;;;;;;;;;;5081138;28;20044;-66
2021/01/23 00:24:11;;;;;;;40.33;21.17;;;;;;;;;;5075699;28;20048;-66
2021/01/23 00:26:38;;;;;;;42.13;21.48;;;;;;;;;;5080101;28;20067;-66
2021/01/23 00:29:04;;;;;;;48.47;20.88;;;;;;;;;;5074340;28;20467;-66
2021/01/23 00:31:30;;;;;;;52.38;23.20;;;;;;;;;;5079357;28;20388;-66
2021/01/23 00:33:56;;;;;;;49.45;22.67;;;;;;;;;;5077302;28;20143;-66
2021/01/23 00:36:23;;;;;;;43.20;22.05;;;;;;;;;;5083512;28;20090;-66
2021/01/23 00:38:49;;;;;;;56.05;22.70;;;;;;;;;;5080549;28;20052;-66
2021/01/23 00:41:15;;;;;;;45.42;20.05;;;;;;;;;;5076609;28;20036;-66
2021/01/23 00:43:42;;;;;;;43.70;20.67;;;;;;;;;;5077185;28;20144;-67
2021/01/23 00:46:08;;;;;;;50.42;20.85;;;;;;;;;;5075592;28;20036;-66
2021/01/23 00:48:34;;;;;;;47.65;21.27;;;;;;;;;;5075954;28;20040;-66
2021/01/23 00:51:00;;;;;;;44.72;21.60;;;;;;;;;;5080076;28;20043;-66
2021/01/23 00:53:27;;;;;;;48.60;22.23;;;;;;;;;;5105831;27;20096;-66
2021/01/23 00:55:53;;;;;;;48.13;23.60;;;;;;;;;;5079466;28;20075;-66
2021/01/23 00:58:19;;;;;;;43.40;22.85;;;;;;;;;;5088379;28;20055;-66
2021/01/23 01:00:46;;;;;;;50.13;23.48;;;;;;;;;;5090569;28;20555;-66
2021/01/23 01:03:12;;;;;;;52.92;23.73;;;;;;;;;;5083433;28;20044;-66
2021/01/23 01:05:38;;;;;;;48.90;23.83;;;;;;;;;;5077668;28;20043;-66
2021/01/23 01:08:05;;;;;;;50.78;23.48;;;;;;;;;;5084275;28;20048;-66
2021/01/23 01:10:31;;;;;;;44.97;25.52;;;;;;;;;;5119119;27;20097;-66
2021/01/23 01:12:57;;;;;;;49.33;24.13;;;;;;;;;;5080983;28;20044;-66
2021/01/23 01:15:24;;;;;;;59.28;23.75;;;;;;;;;;5079991;28;20109;-66
2021/01/23 01:17:50;;;;;;;47.13;23.10;;;;;;;;;;5082971;28;20437;-66
2021/01/23 01:20:16;;;;;;;54.28;24.83;;;;;;;;;;5082410;28;20048;-66
2021/01/23 01:22:42;;;;;;;44.92;23.50;;;;;;;;;;5085702;28;20054;-66
2021/01/23 01:25:09;;;;;;;54.78;25.40;;;;;;;;;;5079504;28;20044;-66
2021/01/23 01:27:35;;;;;;;57.28;24.65;;;;;;;;;;5081970;28;20115;-66
2021/01/23 01:30:02;;;;;;;57.05;26.08;;;;;;;;;;5119714;27;20109;-66
2021/01/23 01:32:28;;;;;;;65.43;28.13;;;;;;;;;;5087178;28;20040;-66
2021/01/23 01:34:54;;;;;;;61.88;27.92;;;;;;;;;;5090764;28;20048;-66
2021/01/23 01:37:20;;;;;;;51.83;26.10;;;;;;;;;;5090987;28;20044;-66
2021/01/23 01:39:47;;;;;;;56.95;26.48;;;;;;;;;;5083377;28;20045;-66
2021/01/23 01:42:13;;;;;;;49.60;24.77;;;;;;;;;;5087192;28;20035;-66
2021/01/23 01:44:39;;;;;;;55.45;24.10;;;;;;;;;;5086165;28;20075;-66
2021/01/23 01:47:05;;;;;;;50.42;24.08;;;;;;;;;;5087058;28;20043;-66
2021/01/23 01:49:32;;;;;;;47.00;22.67;;;;;;;;;;5088049;28;20047;-66
2021/01/23 01:51:58;;;;;;;49.47;24.45;;;;;;;;;;5095277;28;20148;-66
2021/01/23 01:54:25;;;;;;;44.95;23.73;;;;;;;;;;5088516;28;20052;-66
2021/01/23 01:56:53;;;;;;;47.88;23.35;;;;;;;;;;5084819;28;20069;-66
2021/01/23 01:59:19;;;;;;;51.70;23.90;;;;;;;;;;5081519;28;20039;-66
2021/01/23 02:01:46;;;;;;;41.45;22.10;;;;;;;;;;5080538;28;20780;-66
2021/01/23 02:04:20;;;;;;;49.45;24.35;;;;;;;;;;5083306;28;20044;-66
2021/01/23 02:06:57;;;;;;;44.30;22.95;;;;;;;;;;5089559;28;20056;-66
2021/01/23 02:09:24;;;;;;;53.22;24.05;;;;;;;;;;5074822;28;20054;-66
2021/01/23 02:12:16;;;;;;;56.97;24.75;;;;;;;;;;5082278;28;20047;-66
2021/01/23 02:14:48;;;;;;;52.33;23.35;;;;;;;;;;5089653;28;20044;-66
2021/01/23 02:17:17;;;;;;;50.83;24.65;;;;;;;;;;5085225;28;20044;-66
2021/01/23 02:19:44;;;;;;;40.95;22.65;;;;;;;;;;5089242;28;20485;-66
2021/01/23 02:22:29;;;;;;;45.40;23.10;;;;;;;;;;5094886;28;20047;-66
2021/01/23 02:24:56;;;;;;;39.20;21.20;;;;;;;;;;5092267;28;20191;-66
2021/01/23 02:27:29;;;;;;;41.88;22.55;;;;;;;;;;5094830;28;20059;-66
2021/01/23 02:30:03;;;;;;;44.43;22.70;;;;;;;;;;5083906;28;20093;-66
2021/01/23 02:32:31;;;;;;;45.83;21.48;;;;;;;;;;5090394;28;20098;-66
2021/01/23 02:34:59;;;;;;;48.28;23.67;;;;;;;;;;5085722;28;20420;-68
2021/01/23 02:37:26;;;;;;;50.17;24.88;;;;;;;;;;5087731;28;20047;-66
2021/01/23 02:39:52;;;;;;;50.25;24.58;;;;;;;;;;5091153;28;20554;-67
2021/01/23 02:42:19;;;;;;;48.53;25.20;;;;;;;;;;5088006;28;20047;-66
2021/01/23 02:44:45;;;;;;;47.92;24.52;;;;;;;;;;5088118;28;20491;-66
2021/01/23 02:47:11;;;;;;;46.88;24.70;;;;;;;;;;5085871;28;20036;-66
2021/01/23 02:49:38;;;;;;;52.00;27.05;;;;;;;;;;5085460;28;20137;-66
2021/01/23 02:52:09;;;;;;;53.80;28.77;;;;;;;;;;5086569;28;20460;-66
2021/01/23 02:54:40;;;;;;;53.80;27.67;;;;;;;;;;5088887;28;20049;-65
2021/01/23 02:57:07;;;;;;;50.30;27.90;;;;;;;;;;5088599;28;20032;-66
2021/01/23 02:59:34;;;;;;;54.92;30.63;;;;;;;;;;5081504;28;20040;-66
2021/01/23 03:02:02;;;;;;;56.33;29.05;;;;;;;;;;5087835;28;20111;-66
2021/01/23 03:04:30;;;;;;;60.20;30.60;;;;;;;;;;5084058;28;20071;-66
2021/01/23 03:06:57;;;;;;;60.28;32.10;;;;;;;;;;5085842;28;20063;-66
2021/01/23 03:09:24;;;;;;;54.78;33.00;;;;;;;;;;5076673;28;20084;-66
2021/01/23 03:11:51;;;;;;;63.50;31.27;;;;;;;;;;5069979;28;20055;-66
2021/01/23 03:14:18;;;;;;;56.55;31.80;;;;;;;;;;5083410;28;20054;-66
2021/01/23 03:16:55;;;;;;;61.08;31.75;;;;;;;;;;5076140;28;20059;-66
2021/01/23 03:19:22;;;;;;;70.25;34.13;;;;;;;;;;5081910;28;20067;-66
2021/01/23 03:21:49;;;;;;;59.80;30.67;;;;;;;;;;5079801;28;20040;-66
2021/01/23 03:24:15;;;;;;;62.10;32.58;;;;;;;;;;5078326;28;20036;-66
2021/01/23 03:26:42;;;;;;;64.65;33.60;;;;;;;;;;5081376;28;20551;-66
2021/01/23 03:29:08;;;;;;;53.95;32.10;;;;;;;;;;5088351;28;20040;-66
2021/01/23 03:31:35;;;;;;;58.13;32.97;;;;;;;;;;5091954;28;20084;-66
2021/01/23 03:34:03;;;;;;;55.40;33.58;;;;;;;;;;5086160;28;20075;-66
2021/01/23 03:36:29;;;;;;;64.47;34.58;;;;;;;;;;5088545;28;20043;-66
2021/01/23 03:38:56;;;;;;;58.95;30.85;;;;;;;;;;5090165;28;20055;-66
2021/01/23 03:41:22;;;;;;;60.15;32.67;;;;;;;;;;5083910;28;20097;-66
2021/01/23 03:43:48;;;;;;;58.72;32.75;;;;;;;;;;5090148;28;20051;-66
2021/01/23 03:46:15;;;;;;;51.63;31.50;;;;;;;;;;5088133;28;20050;-66
2021/01/23 03:48:41;;;;;;;57.83;31.55;;;;;;;;;;5088305;28;20085;-66
2021/01/23 03:51:07;;;;;;;58.15;31.02;;;;;;;;;;5079427;28;20028;-66
2021/01/23 03:53:34;;;;;;;51.00;30.00;;;;;;;;;;5082149;28;20068;-66
2021/01/23 03:56:00;;;;;;;57.33;30.67;;;;;;;;;;5082139;28;20471;-66
2021/01/23 03:58:26;;;;;;;54.58;31.38;;;;;;;;;;5085971;28;20105;-66
2021/01/23 04:00:53;;;;;;;53.55;31.75;;;;;;;;;;5082832;28;20040;-66
2021/01/23 04:03:20;;;;;;;50.47;30.80;;;;;;;;;;5085358;28;20062;-66
2021/01/23 04:05:46;;;;;;;58.22;31.00;;;;;;;;;;5089647;28;20074;-66
2021/01/23 04:08:12;;;;;;;53.08;30.42;;;;;;;;;;5084613;28;20056;-66
2021/01/23 04:10:38;;;;;;;53.88;29.85;;;;;;;;;;5085590;28;20052;-66
2021/01/23 04:13:05;;;;;;;52.35;30.30;;;;;;;;;;5087575;28;20050;-66
2021/01/23 04:15:31;;;;;;;54.72;32.38;;;;;;;;;;5085695;28;20185;-66
2021/01/23 04:17:57;;;;;;;51.97;32.22;;;;;;;;;;5086636;28;20064;-66
2021/01/23 04:20:24;;;;;;;50.78;29.80;;;;;;;;;;5094842;28;20053;-66
2021/01/23 04:22:50;;;;;;;46.78;28.13;;;;;;;;;;5078752;28;20106;-66
2021/01/23 04:25:16;;;;;;;48.05;29.55;;;;;;;;;;5087784;28;20151;-66
2021/01/23 04:27:42;;;;;;;50.75;29.42;;;;;;;;;;5083700;28;20044;-66
2021/01/23 04:30:11;;;;;;;49.25;29.45;;;;;;;;;;5082778;28;20467;-66
2021/01/23 04:32:38;;;;;;;44.38;26.67;;;;;;;;;;5080900;28;20048;-66
2021/01/23 04:35:05;;;;;;;48.55;27.73;;;;;;;;;;5084848;28;20068;-66
2021/01/23 04:37:31;;;;;;;48.40;28.40;;;;;;;;;;5087233;28;20040;-66
2021/01/23 04:39:57;;;;;;;50.10;28.23;;;;;;;;;;5085541;28;20040;-66
2021/01/23 04:42:24;;;;;;;48.58;27.55;;;;;;;;;;5088236;28;20044;-66
2021/01/23 04:44:50;;;;;;;43.40;27.55;;;;;;;;;;5086696;28;20134;-66
2021/01/23 04:47:16;;;;;;;49.15;29.23;;;;;;;;;;5085149;28;20036;-66
2021/01/23 04:49:42;;;;;;;55.13;32.00;;;;;;;;;;5083373;28;20422;-66
2021/01/23 04:52:09;;;;;;;49.40;30.58;;;;;;;;;;5080413;28;20270;-66
2021/01/23 04:54:35;;;;;;;59.65;36.60;;;;;;;;;;5083995;28;20451;-66
2021/01/23 04:57:03;;;;;;;62.35;34.47;;;;;;;;;;5084344;28;20428;-66
2021/01/23 04:59:30;;;;;;;67.05;35.30;;;;;;;;;;5080917;28;20040;-66
2021/01/23 05:02:13;;;;;;;69.97;35.00;;;;;;;;;;5084273;28;20048;-66
2021/01/23 05:04:48;;;;;;;60.58;33.85;;;;;;;;;;5085663;28;20058;-66
2021/01/23 05:07:26;;;;;;;71.85;37.17;;;;;;;;;;5091339;28;20044;-66
2021/01/23 05:09:53;;;;;;;75.03;38.05;;;;;;;;;;5084792;28;20521;-66
2021/01/23 05:12:36;;;;;;;65.50;37.50;;;;;;;;;;5084595;28;20056;-66
2021/01/23 05:15:03;;;;;;;72.10;39.75;;;;;;;;;;5083095;28;20059;-66
2021/01/23 05:17:29;;;;;;;71.57;39.08;;;;;;;;;;5085897;28;20083;-66
2021/01/23 05:19:55;;;;;;;78.05;39.35;;;;;;;;;;5080831;28;20176;-66
2021/01/23 05:22:22;;;;;;;69.65;37.83;;;;;;;;;;5082971;28;20047;-66
2021/01/23 05:24:49;;;;;;;60.75;34.60;;;;;;;;;;5077668;28;20218;-66
2021/01/23 05:27:15;;;;;;;77.55;41.05;;;;;;;;;;5083252;28;20047;-66
2021/01/23 05:29:58;;;;;;;66.70;37.63;;;;;;;;;;5083698;28;20055;-66
2021/01/23 05:32:25;;;;;;;81.72;43.33;;;;;;;;;;5085206;28;20041;-65
2021/01/23 05:34:51;;;;;;;86.70;44.03;;;;;;;;;;5085289;28;20059;-65
2021/01/23 05:37:32;;;;;;;93.20;45.88;;;;;;;;;;5086524;28;20116;-65
2021/01/23 05:39:58;;;;;;;84.50;45.10;;;;;;;;;;5085134;28;20059;-65
2021/01/23 05:42:25;;;;;;;83.47;45.78;;;;;;;;;;5085825;28;20075;-65
2021/01/23 05:45:05;;;;;;;82.55;42.13;;;;;;;;;;5089312;28;20044;-66
2021/01/23 05:47:32;;;;;;;83.97;43.25;;;;;;;;;;5085360;28;20127;-66
2021/01/23 05:49:58;;;;;;;78.10;43.95;;;;;;;;;;5082861;28;20040;-66
2021/01/23 05:52:24;;;;;;;83.50;46.10;;;;;;;;;;5088415;28;20137;-65
2021/01/23 05:54:50;;;;;;;87.60;48.38;;;;;;;;;;5090192;28;20055;-66
2021/01/23 05:57:17;;;;;;;80.63;45.95;;;;;;;;;;5087647;28;20089;-66
2021/01/23 05:59:44;;;;;;;89.28;48.10;;;;;;;;;;5088907;28;20101;-65
2021/01/23 06:02:11;;;;;;;79.75;42.97;;;;;;;;;;5089234;28;20418;-66
2021/01/23 06:04:41;;;;;;;84.50;43.25;;;;;;;;;;5093784;28;20054;-65
2021/01/23 06:07:08;;;;;;;82.47;42.70;;;;;;;;;;5093558;28;20045;-65
2021/01/23 06:09:34;;;;;;;82.03;45.60;;;;;;;;;;5080099;28;20110;-66
2021/01/23 06:12:01;;;;;;;72.80;42.95;;;;;;;;;;5086550;28;20047;-65
2021/01/23 06:14:46;;;;;;;72.93;43.25;;;;;;;;;;5093375;28;20039;-65
2021/01/23 06:17:32;;;;;;;77.13;44.05;;;;;;;;;;5092212;28;20045;-66
2021/01/23 06:19:58;;;;;;;72.82;41.17;;;;;;;;;;5086218;28;20498;-65
2021/01/23 06:22:44;;;;;;;71.05;42.13;;;;;;;;;;5088819;28;20127;-65
2021/01/23 06:25:11;;;;;;;81.22;42.63;;;;;;;;;;5082506;28;20040;-66
2021/01/23 06:27:46;;;;;;;76.60;42.65;;;;;;;;;;5089049;28;20048;-66
2021/01/23 06:30:29;;;;;;;88.43;46.72;;;;;;;;;;5089309;28;20044;-66
2021/01/23 06:32:56;;;;;;;69.32;42.35;;;;;;;;;;5084648;28;20051;-65
2021/01/23 06:35:22;;;;;;;65.80;39.03;;;;;;;;;;5086948;28;20403;-65
2021/01/23 06:37:49;;;;;;;77.97;42.05;;;;;;;;;;5096199;28;20052;-65
2021/01/23 06:40:24;;;;;;;64.35;38.97;;;;;;;;;;5094387;28;20066;-66
2021/01/23 06:42:53;;;;;;;72.78;40.55;;;;;;;;;;5083855;28;20119;-66
2021/01/23 06:45:21;;;;;;;69.38;40.83;;;;;;;;;;5088866;28;20043;-66
2021/01/23 06:47:49;;;;;;;74.85;38.67;;;;;;;;;;5087666;28;20048;-65
2021/01/23 06:50:26;;;;;;;74.78;42.63;;;;;;;;;;5089705;28;20119;-66
2021/01/23 06:52:52;;;;;;;64.50;38.50;;;;;;;;;;5086987;28;20047;-66
2021/01/23 06:55:38;;;;;;;67.22;36.13;;;;;;;;;;5090897;28;20037;-65
2021/01/23 06:58:04;;;;;;;66.60;35.10;;;;;;;;;;5087017;28;20182;-65
2021/01/23 07:00:37;;;;;;;66.32;38.72;;;;;;;;;;5089596;28;20055;-65
2021/01/23 07:03:10;;;;;;;60.95;38.05;;;;;;;;;;5089549;28;20063;-66
2021/01/23 07:05:44;;;;;;;56.97;32.50;;;;;;;;;;5088306;28;20063;-65
2021/01/23 07:08:20;;;;;;;62.78;37.28;;;;;;;;;;5089480;28;20064;-65
2021/01/23 07:11:02;;;;;;;71.70;40.65;;;;;;;;;;5081223;28;20051;-66
2021/01/23 07:13:28;;;;;;;65.35;38.53;;;;;;;;;;5093075;28;20040;-65
2021/01/23 07:15:54;;;;;;;71.10;39.20;;;;;;;;;;5086896;28;20040;-65
2021/01/23 07:18:21;;;;;;;81.90;43.10;;;;;;;;;;5091775;28;20054;-65
2021/01/23 07:20:48;;;;;;;70.65;40.05;;;;;;;;;;5083529;28;20125;-66
2021/01/23 07:23:14;;;;;;;74.63;41.42;;;;;;;;;;5085251;28;20346;-65
2021/01/23 07:25:41;;;;;;;72.43;39.20;;;;;;;;;;5079719;28;20514;-65
2021/01/23 07:28:07;;;;;;;66.25;37.53;;;;;;;;;;5088553;28;20051;-65
2021/01/23 07:30:33;;;;;;;71.95;40.65;;;;;;;;;;5094236;28;20170;-65
2021/01/23 07:33:00;;;;;;;70.75;40.47;;;;;;;;;;5092933;28;20130;-65
2021/01/23 07:35:26;;;;;;;61.78;37.13;;;;;;;;;;5094440;28;20036;-66
2021/01/23 07:37:58;;;;;;;62.92;38.88;;;;;;;;;;5091611;28;20040;-66
2021/01/23 07:40:26;;;;;;;63.17;37.30;;;;;;;;;;5087978;28;20044;-65
2021/01/23 07:42:53;;;;;;;59.63;36.08;;;;;;;;;;5092004;28;20040;-75
2021/01/23 07:45:20;;;;;;;60.30;39.17;;;;;;;;;;5097782;28;20047;-72
2021/01/23 07:47:58;;;;;;;71.80;39.05;;;;;;;;;;5098648;28;20095;-69
2021/01/23 07:50:25;;;;;;;66.50;38.50;;;;;;;;;;5090053;28;20084;-70
2021/01/23 07:52:51;;;;;;;65.78;38.30;;;;;;;;;;5101002;28;20510;-70
2021/01/23 07:55:17;;;;;;;64.63;39.40;;;;;;;;;;5088073;28;20101;-71
2021/01/23 07:58:04;;;;;;;58.40;35.50;;;;;;;;;;5092625;28;20123;-78
2021/01/23 08:00:30;;;;;;;65.10;39.45;;;;;;;;;;5091775;28;20063;-82
2021/01/23 08:02:57;;;;;;;57.97;35.25;;;;;;;;;;5092011;28;20068;-80
2021/01/23 08:05:40;;;;;;;63.70;36.97;;;;;;;;;;5091035;28;20044;-79
2021/01/23 08:08:06;;;;;;;54.45;35.85;;;;;;;;;;5091347;28;20115;-81
2021/01/23 08:10:52;;;;;;;64.35;36.22;;;;;;;;;;5091997;28;20044;-79
2021/01/23 08:13:23;;;;;;;58.75;36.38;;;;;;;;;;5091725;28;20036;-80
2021/01/23 08:15:49;;;;;;;56.58;34.72;;;;;;;;;;5087453;28;20544;-79
2021/01/23 08:18:16;;;;;;;54.25;33.97;;;;;;;;;;5092599;28;20100;-79
2021/01/23 08:20:43;;;;;;;51.42;32.10;;;;;;;;;;5090690;28;20059;-87
2021/01/23 08:23:15;;;;;;;59.70;33.45;;;;;;;;;;5092498;28;20040;-80
2021/01/23 08:25:50;;;;;;;51.05;31.83;;;;;;;;;;5089329;28;20036;-80
2021/01/23 08:28:19;;;;;;;50.38;31.70;;;;;;;;;;5101623;28;20046;-89
2021/01/23 08:30:45;;;;;;;58.50;32.78;;;;;;;;;;5100431;28;20055;-77
2021/01/23 08:33:12;;;;;;;51.58;31.67;;;;;;;;;;5094818;28;20389;-70
2021/01/23 08:35:41;;;;;;;46.92;30.85;;;;;;;;;;5087001;28;20859;-70
2021/01/23 08:38:09;;;;;;;52.42;30.15;;;;;;;;;;5092253;28;20390;-70
2021/01/23 08:40:42;;;;;;;57.85;32.28;;;;;;;;;;5134011;27;20131;-69
2021/01/23 08:43:09;;;;;;;44.95;29.75;;;;;;;;;;5108274;28;20075;-69
2021/01/23 08:45:36;;;;;;;47.78;27.77;;;;;;;;;;5108646;28;20115;-69
2021/01/23 08:48:02;;;;;;;49.25;30.65;;;;;;;;;;5107831;28;20040;-69
2021/01/23 08:50:28;;;;;;;46.17;28.80;;;;;;;;;;5107700;28;20062;-68
2021/01/23 08:52:55;;;;;;;45.95;27.15;;;;;;;;;;5108383;28;20067;-69
2021/01/23 08:55:21;;;;;;;43.70;26.73;;;;;;;;;;5107628;28;20114;-69
2021/01/23 08:57:47;;;;;;;41.92;25.05;;;;;;;;;;5107239;28;20036;-69
2021/01/23 09:00:15;;;;;;;44.95;26.58;;;;;;;;;;5114458;28;20040;-68
2021/01/23 09:02:41;;;;;;;44.97;27.77;;;;;;;;;;5109393;28;20036;-68
2021/01/23 09:05:10;;;;;;;53.50;26.55;;;;;;;;;;5108356;28;20506;-69
2021/01/23 09:07:38;;;;;;;36.58;25.90;;;;;;;;;;5085951;28;20045;-69
2021/01/23 09:10:07;;;;;;;44.17;25.80;;;;;;;;;;5109485;28;20103;-68
2021/01/23 09:12:33;;;;;;;40.40;26.77;;;;;;;;;;5120795;28;20047;-66
2021/01/23 09:14:59;;;;;;;31.38;22.63;;;;;;;;;;5118441;28;20118;-68
2021/01/23 09:17:25;;;;;;;38.33;24.80;;;;;;;;;;5123062;28;20112;-68
2021/01/23 09:19:52;;;;;;;40.08;24.30;;;;;;;;;;5114334;28;20231;-67
2021/01/23 09:22:18;;;;;;;38.78;22.77;;;;;;;;;;5102152;28;20059;-68
2021/01/23 09:24:44;;;;;;;43.10;23.10;;;;;;;;;;5121364;28;20044;-68
2021/01/23 09:27:11;;;;;;;37.22;22.45;;;;;;;;;;5103577;28;20055;-70
2021/01/23 09:29:39;;;;;;;44.42;23.33;;;;;;;;;;5108471;28;20126;-68
2021/01/23 09:32:06;;;;;;;44.42;25.60;;;;;;;;;;5111088;28;20032;-69
2021/01/23 09:34:33;;;;;;;37.38;25.77;;;;;;;;;;5110117;28;20101;-76
2021/01/23 09:36:59;;;;;;;38.88;25.25;;;;;;;;;;5100271;28;20475;-68
2021/01/23 09:39:25;;;;;;;42.53;24.85;;;;;;;;;;5105281;28;20044;-68
2021/01/23 09:41:52;;;;;;;44.53;26.85;;;;;;;;;;5109444;28;20043;-68
2021/01/23 09:44:19;;;;;;;34.30;22.88;;;;;;;;;;5110844;28;20138;-68
2021/01/23 09:46:45;;;;;;;32.38;22.50;;;;;;;;;;5107136;28;20115;-68
2021/01/23 09:49:11;;;;;;;29.30;20.90;;;;;;;;;;5109016;28;20050;-68
2021/01/23 09:51:38;;;;;;;24.95;18.42;;;;;;;;;;5094052;28;20491;-68
2021/01/23 09:54:04;;;;;;;24.75;18.08;;;;;;;;;;5096313;28;20040;-69
2021/01/23 09:56:30;;;;;;;26.30;17.95;;;;;;;;;;5096517;28;20128;-68
2021/01/23 09:58:56;;;;;;;29.70;19.17;;;;;;;;;;5096293;28;20543;-68
2021/01/23 10:01:23;;;;;;;20.52;15.45;;;;;;;;;;5094135;28;20483;-68
2021/01/23 10:03:49;;;;;;;23.55;16.08;;;;;;;;;;5076770;28;20118;-68
2021/01/23 10:06:15;;;;;;;20.70;14.45;;;;;;;;;;5106942;28;20035;-66
2021/01/23 10:08:42;;;;;;;19.92;12.93;;;;;;;;;;5097687;28;20139;-68
2021/01/23 10:11:08;;;;;;;20.42;14.02;;;;;;;;;;5094093;28;20055;-68
2021/01/23 10:13:34;;;;;;;22.45;13.48;;;;;;;;;;5090344;28;20048;-68
2021/01/23 10:16:01;;;;;;;20.15;13.23;;;;;;;;;;5100475;28;20074;-68
2021/01/23 10:18:27;;;;;;;18.23;12.48;;;;;;;;;;5100418;28;20487;-68
2021/01/23 10:20:54;;;;;;;13.20;7.85;;;;;;;;;;5095500;28;20054;-68
2021/01/23 10:23:21;;;;;;;14.50;7.03;;;;;;;;;;5096030;28;20100;-74
2021/01/23 10:25:47;;;;;;;12.43;8.50;;;;;;;;;;5092906;28;20040;-69
2021/01/23 10:28:13;;;;;;;15.00;9.27;;;;;;;;;;5095386;28;20816;-69
2021/01/23 10:30:39;;;;;;;19.27;12.13;;;;;;;;;;5092442;28;20036;-69
2021/01/23 10:33:06;;;;;;;19.42;13.18;;;;;;;;;;5092252;28;20036;-69
2021/01/23 10:35:32;;;;;;;17.83;12.57;;;;;;;;;;5092896;28;20043;-67
2021/01/23 10:37:58;;;;;;;19.55;12.18;;;;;;;;;;5092905;28;20047;-68
2021/01/23 10:40:25;;;;;;;22.88;14.10;;;;;;;;;;5092192;28;20059;-69
2021/01/23 10:42:51;;;;;;;19.50;12.93;;;;;;;;;;5091996;28;20094;-68
2021/01/23 10:45:18;;;;;;;22.45;12.55;;;;;;;;;;5094452;28;20114;-68
2021/01/23 10:47:44;;;;;;;17.52;10.77;;;;;;;;;;5092330;28;20047;-69
2021/01/23 10:50:11;;;;;;;21.63;11.25;;;;;;;;;;5100030;28;20051;-70
2021/01/23 10:52:37;;;;;;;12.93;9.48;;;;;;;;;;5091821;28;20116;-69
2021/01/23 10:55:04;;;;;;;14.70;7.45;;;;;;;;;;5092385;28;20532;-69
2021/01/23 10:57:30;;;;;;;12.48;8.63;;;;;;;;;;5089990;28;20455;-69
2021/01/23 10:59:56;;;;;;;15.18;9.73;;;;;;;;;;5098745;28;20042;-69
2021/01/23 11:02:23;;;;;;;18.30;10.52;;;;;;;;;;5092430;28;20043;-68
2021/01/23 11:04:49;;;;;;;18.20;10.70;;;;;;;;;;5089826;28;20096;-69
2021/01/23 11:07:15;;;;;;;16.10;10.38;;;;;;;;;;5090447;28;20047;-69
2021/01/23 11:09:42;;;;;;;15.80;10.30;;;;;;;;;;5095947;28;20100;-69
2021/01/23 11:12:09;;;;;;;17.80;10.27;;;;;;;;;;5093652;28;20124;-69
2021/01/23 11:14:35;;;;;;;12.77;9.68;;;;;;;;;;5085495;28;20044;-69
2021/01/23 11:17:02;;;;;;;12.65;7.75;;;;;;;;;;5079829;28;20068;-69
2021/01/23 11:19:28;;;;;;;14.00;6.65;;;;;;;;;;5082441;28;20067;-69
2021/01/23 11:21:55;;;;;;;13.02;6.20;;;;;;;;;;5090946;28;20093;-69
2021/01/23 11:24:21;;;;;;;9.90;4.88;;;;;;;;;;5091852;28;20475;-73
2021/01/23 11:26:48;;;;;;;8.15;4.13;;;;;;;;;;5084553;28;22089;-69
2021/01/23 11:29:14;;;;;;;5.63;2.47;;;;;;;;;;5091432;28;20048;-69
2021/01/23 11:31:41;;;;;;;9.68;2.13;;;;;;;;;;5090505;28;20040;-67
2021/01/23 11:34:07;;;;;;;6.80;1.88;;;;;;;;;;5099153;28;20489;-69
2021/01/23 11:36:33;;;;;;;5.32;1.52;;;;;;;;;;5091641;28;20261;-69
2021/01/23 11:39:00;;;;;;;3.08;1.00;;;;;;;;;;5092207;28;20456;-80
2021/01/23 11:41:26;;;;;;;6.38;1.23;;;;;;;;;;5098445;28;20471;-78
2021/01/23 11:43:52;;;;;;;4.45;1.30;;;;;;;;;;5092023;28;20080;-77
2021/01/23 11:46:19;;;;;;;2.80;0.75;;;;;;;;;;5061535;28;20048;-77
2021/01/23 11:48:46;;;;;;;4.43;1.30;;;;;;;;;;5090608;28;20040;-76
2021/01/23 11:51:13;;;;;;;3.58;1.40;;;;;;;;;;5092265;28;20032;-76
2021/01/23 11:53:39;;;;;;;4.97;1.38;;;;;;;;;;5086901;28;20445;-79
2021/01/23 11:56:06;;;;;;;5.45;1.00;;;;;;;;;;5093116;28;20114;-76
2021/01/23 11:58:32;;;;;;;3.10;1.17;;;;;;;;;;5086879;28;20052;-75
2021/01/23 12:00:59;;;;;;;4.95;0.93;;;;;;;;;;5083270;28;20039;-77
2021/01/23 12:03:25;;;;;;;5.63;1.02;;;;;;;;;;5090046;28;20071;-74
2021/01/23 12:05:51;;;;;;;2.05;0.70;;;;;;;;;;5093557;28;20383;-74
2021/01/23 12:08:18;;;;;;;4.80;1.13;;;;;;;;;;5090666;28;20047;-71
2021/01/23 12:10:44;;;;;;;11.90;1.30;;;;;;;;;;5091009;28;20047;-72
2021/01/23 12:13:11;;;;;;;3.22;1.00;;;;;;;;;;5090204;28;20149;-68
2021/01/23 12:15:38;;;;;;;7.32;0.90;;;;;;;;;;5092817;28;20052;-68
2021/01/23 12:18:04;;;;;;;5.07;1.02;;;;;;;;;;5090796;28;20140;-68
2021/01/23 12:20:31;;;;;;;3.88;0.90;;;;;;;;;;5091551;28;20048;-68
2021/01/23 12:22:57;;;;;;;6.22;1.27;;;;;;;;;;5095395;28;20047;-68
2021/01/23 12:25:24;;;;;;;2.63;1.27;;;;;;;;;;5076651;28;20047;-68
2021/01/23 12:27:51;;;;;;;4.43;1.40;;;;;;;;;;5076193;28;20043;-68
2021/01/23 12:30:18;;;;;;;2.40;1.02;;;;;;;;;;5075342;28;20123;-68
2021/01/23 12:32:45;;;;;;;5.05;0.90;;;;;;;;;;5068842;28;20559;-69
2021/01/23 12:35:12;;;;;;;3.28;0.80;;;;;;;;;;5073698;28;20074;-69
2021/01/23 12:37:39;;;;;;;4.45;1.10;;;;;;;;;;5069938;28;20090;-71
2021/01/23 12:40:07;;;;;;;4.80;0.90;;;;;;;;;;5075390;28;20164;-72
2021/01/23 12:42:33;;;;;;;11.35;1.88;;;;;;;;;;5066898;28;20086;-71
2021/01/23 12:45:00;;;;;;;4.53;1.25;;;;;;;;;;5082533;28;20497;-71
2021/01/23 12:47:28;;;;;;;4.45;1.10;;;;;;;;;;5092827;28;20556;-70
2021/01/23 12:49:54;;;;;;;5.82;1.27;;;;;;;;;;5084408;28;20259;-71
2021/01/23 12:52:21;;;;;;;5.43;1.42;;;;;;;;;;5087851;28;20036;-71
2021/01/23 12:54:47;;;;;;;6.93;1.50;;;;;;;;;;5092176;28;20048;-71
2021/01/23 12:57:13;;;;;;;6.68;1.48;;;;;;;;;;5090313;28;20060;-71
2021/01/23 12:59:39;;;;;;;6.80;1.63;;;;;;;;;;5086941;28;20487;-71
2021/01/23 13:02:06;;;;;;;6.47;1.77;;;;;;;;;;5080864;28;20040;-71
2021/01/23 13:04:32;;;;;;;5.88;2.10;;;;;;;;;;5079850;28;20049;-71
2021/01/23 13:06:58;;;;;;;5.43;2.70;;;;;;;;;;5091087;28;20039;-71
2021/01/23 13:09:25;;;;;;;5.97;2.33;;;;;;;;;;5091106;28;20090;-71
2021/01/23 13:11:51;;;;;;;5.50;2.67;;;;;;;;;;5072147;28;20059;-71
2021/01/23 13:14:17;;;;;;;6.07;2.22;;;;;;;;;;5091147;28;20135;-71
2021/01/23 13:16:44;;;;;;;8.27;2.83;;;;;;;;;;5082736;28;20024;-71
2021/01/23 13:19:11;;;;;;;6.45;3.05;;;;;;;;;;5070760;28;20056;-69
2021/01/23 13:21:39;;;;;;;6.47;2.72;;;;;;;;;;5078783;28;20369;-69
2021/01/23 13:24:06;;;;;;;5.80;2.95;;;;;;;;;;5078834;28;20032;-69
2021/01/23 13:26:33;;;;;;;7.30;2.88;;;;;;;;;;5074704;28;20140;-69
2021/01/23 13:28:59;;;;;;;7.63;2.78;;;;;;;;;;5076310;28;20036;-69
2021/01/23 13:31:27;;;;;;;5.38;2.35;;;;;;;;;;5094301;28;20055;-69
2021/01/23 13:33:54;;;;;;;5.93;3.13;;;;;;;;;;5094908;28;20154;-69
2021/01/23 13:36:20;;;;;;;7.82;3.40;;;;;;;;;;5081867;28;20103;-69
2021/01/23 13:38:47;;;;;;;8.55;3.55;;;;;;;;;;5081469;28;20402;-70
2021/01/23 13:41:13;;;;;;;10.52;3.42;;;;;;;;;;5093311;28;20036;-69
2021/01/23 13:43:40;;;;;;;7.18;2.83;;;;;;;;;;5094236;28;20040;-70
2021/01/23 13:46:06;;;;;;;8.45;2.10;;;;;;;;;;5093669;28;20056;-70
2021/01/23 13:48:33;;;;;;;5.28;2.05;;;;;;;;;;5087968;28;20071;-69
2021/01/23 13:50:59;;;;;;;5.55;1.80;;;;;;;;;;5093065;28;20431;-70
2021/01/23 13:53:26;;;;;;;4.10;1.70;;;;;;;;;;5086422;28;20121;-71
2021/01/23 13:55:52;;;;;;;2.88;1.30;;;;;;;;;;5094045;28;20055;-71
2021/01/23 13:58:18;;;;;;;3.47;1.35;;;;;;;;;;5093004;28;20044;-71
2021/01/23 14:00:44;;;;;;;5.70;1.20;;;;;;;;;;5084516;28;20055;-71
2021/01/23 14:03:11;;;;;;;3.63;0.80;;;;;;;;;;5093731;28;20036;-71
2021/01/23 14:05:37;;;;;;;2.83;0.60;;;;;;;;;;5087459;28;20052;-71
2021/01/23 14:08:04;;;;;;;4.78;0.90;;;;;;;;;;5083357;28;20089;-71
2021/01/23 14:10:30;;;;;;;3.03;0.70;;;;;;;;;;5084908;28;20093;-69
2021/01/23 14:12:56;;;;;;;2.47;0.90;;;;;;;;;;5070252;28;20055;-69
2021/01/23 14:15:25;;;;;;;2.88;1.00;;;;;;;;;;5093012;28;20372;-69
2021/01/23 14:17:51;;;;;;;5.72;1.13;;;;;;;;;;5094024;28;20055;-69
2021/01/23 14:20:19;;;;;;;3.90;0.98;;;;;;;;;;5092682;28;20720;-69
2021/01/23 14:22:45;;;;;;;6.15;1.10;;;;;;;;;;5095626;28;20044;-69
2021/01/23 14:25:12;;;;;;;3.35;0.90;;;;;;;;;;5103511;28;20043;-70
2021/01/23 14:27:38;;;;;;;6.18;1.20;;;;;;;;;;5092931;28;20044;-70